www.cux-wetter.de
Wetterdaten: Montag, 15.12.2008
Datum Zeit Temp. A. Feuchte A. Luftdruck Regen Wind Richtung Richtung Sonnenschein Solar Taupunkt Windchill Windben
15.12.2008 00:04 2,3 C 95 % 1011,5 hPa 0,0 l/m 7,6 km/h (2 Bft) NO 55 0 min 0 W/m 1,6 C 1,1 C 7,6 km/h (2 Bft)
15.12.2008 00:10 2,4 C 95 % 1011,5 hPa 0,0 l/m 8,7 km/h (2 Bft) O-NO 70 0 min 0 W/m 1,7 C 0,3 C 8,7 km/h (2 Bft)
15.12.2008 00:14 2,4 C 95 % 1011,5 hPa 0,0 l/m 9,1 km/h (2 Bft) NO 55 0 min 0 W/m 1,7 C -0,1 C 9,1 km/h (2 Bft)
15.12.2008 00:19 2,5 C 95 % 1011,5 hPa 0,0 l/m 11,1 km/h (2 Bft) O-NO 65 0 min 0 W/m 1,8 C -1,5 C 11,1 km/h (2 Bft)
15.12.2008 00:24 2,5 C 95 % 1011,5 hPa 0,0 l/m 11,0 km/h (2 Bft) O-NO 65 0 min 0 W/m 1,8 C -1,4 C 11,0 km/h (2 Bft)
15.12.2008 00:29 2,5 C 95 % 1011,5 hPa 0,0 l/m 12,5 km/h (2 Bft) O-NO 65 0 min 0 W/m 1,8 C -2,5 C 12,5 km/h (2 Bft)
15.12.2008 00:34 2,6 C 95 % 1011,5 hPa 0,0 l/m 13,3 km/h (3 Bft) O-NO 70 0 min 0 W/m 1,9 C -2,8 C 13,3 km/h (3 Bft)
15.12.2008 00:39 2,6 C 95 % 1011,5 hPa 0,0 l/m 9,0 km/h (2 Bft) O-NO 70 0 min 0 W/m 1,9 C 0,2 C 9,0 km/h (2 Bft)
15.12.2008 00:45 2,6 C 95 % 1011,5 hPa 0,0 l/m 10,0 km/h (2 Bft) O-NO 70 0 min 0 W/m 1,9 C -0,6 C 10,0 km/h (2 Bft)
15.12.2008 00:50 2,7 C 95 % 1011,5 hPa 0,0 l/m 12,6 km/h (3 Bft) O 80 0 min 0 W/m 2,0 C -2,3 C 12,6 km/h (3 Bft)
15.12.2008 00:55 2,7 C 95 % 1011,5 hPa 0,0 l/m 17,8 km/h (3 Bft) O-NO 70 0 min 0 W/m 2,0 C -5,1 C 17,8 km/h (3 Bft)
15.12.2008 01:00 2,7 C 95 % 1011,5 hPa 0,0 l/m 10,3 km/h (2 Bft) O 80 0 min 0 W/m 2,0 C -0,7 C 10,3 km/h (2 Bft)
15.12.2008 01:04 2,8 C 95 % 1011,5 hPa 0,0 l/m 12,8 km/h (3 Bft) O 90 0 min 0 W/m 2,1 C -2,3 C 12,8 km/h (3 Bft)
15.12.2008 01:10 2,8 C 95 % 1011,5 hPa 0,0 l/m 16,0 km/h (3 Bft) O 80 0 min 0 W/m 2,1 C -4,1 C 16,0 km/h (3 Bft)
15.12.2008 01:15 2,9 C 95 % 1011,5 hPa 0,0 l/m 14,6 km/h (3 Bft) O-NO 75 0 min 0 W/m 2,2 C -3,2 C 14,6 km/h (3 Bft)
15.12.2008 01:20 2,9 C 95 % 1011,5 hPa 0,0 l/m 14,5 km/h (3 Bft) O 80 0 min 0 W/m 2,2 C -3,2 C 14,5 km/h (3 Bft)
15.12.2008 01:25 2,9 C 95 % 1012,5 hPa 0,0 l/m 12,8 km/h (3 Bft) O 95 0 min 0 W/m 2,2 C -2,2 C 12,8 km/h (3 Bft)
15.12.2008 01:29 3,0 C 95 % 1012,5 hPa 0,0 l/m 12,9 km/h (3 Bft) O-NO 75 0 min 0 W/m 2,3 C -2,1 C 12,9 km/h (3 Bft)
15.12.2008 01:34 3,0 C 95 % 1012,5 hPa 0,0 l/m 11,3 km/h (2 Bft) O 80 0 min 0 W/m 2,3 C -1,1 C 11,3 km/h (2 Bft)
15.12.2008 01:39 3,0 C 95 % 1012,5 hPa 0,0 l/m 20,6 km/h (4 Bft) O-NO 70 0 min 0 W/m 2,3 C -6,0 C 20,6 km/h (4 Bft)
15.12.2008 01:44 3,0 C 95 % 1012,5 hPa 0,0 l/m 19,8 km/h (3 Bft) O-NO 60 0 min 0 W/m 2,3 C -5,7 C 19,8 km/h (3 Bft)
15.12.2008 01:49 3,0 C 95 % 1012,5 hPa 0,0 l/m 18,5 km/h (3 Bft) O-NO 75 0 min 0 W/m 2,3 C -5,1 C 18,5 km/h (3 Bft)
15.12.2008 01:55 3,1 C 94 % 1012,5 hPa 0,0 l/m 15,6 km/h (3 Bft) O-NO 70 0 min 0 W/m 2,2 C -3,5 C 15,6 km/h (3 Bft)
15.12.2008 02:00 3,0 C 94 % 1012,5 hPa 0,0 l/m 10,8 km/h (2 Bft) O 100 0 min 0 W/m 2,1 C -0,7 C 10,8 km/h (2 Bft)
15.12.2008 02:04 3,1 C 94 % 1012,5 hPa 0,0 l/m 9,2 km/h (2 Bft) O-NO 60 0 min 0 W/m 2,2 C 0,6 C 9,2 km/h (2 Bft)
15.12.2008 02:09 3,1 C 94 % 1012,5 hPa 0,0 l/m 13,1 km/h (3 Bft) O-NO 65 0 min 0 W/m 2,2 C -2,1 C 13,1 km/h (3 Bft)
15.12.2008 02:14 3,1 C 94 % 1012,5 hPa 0,0 l/m 13,8 km/h (3 Bft) O 90 0 min 0 W/m 2,2 C -2,5 C 13,8 km/h (3 Bft)
15.12.2008 02:20 3,1 C 94 % 1012,5 hPa 0,0 l/m 20,0 km/h (4 Bft) O 85 0 min 0 W/m 2,2 C -5,6 C 20,0 km/h (4 Bft)
15.12.2008 02:25 3,1 C 93 % 1012,5 hPa 0,0 l/m 16,0 km/h (3 Bft) O-NO 70 0 min 0 W/m 2,1 C -3,8 C 16,0 km/h (3 Bft)
15.12.2008 02:30 3,1 C 93 % 1012,5 hPa 0,0 l/m 11,3 km/h (2 Bft) O-NO 70 0 min 0 W/m 2,1 C -1,0 C 11,3 km/h (2 Bft)
15.12.2008 02:35 3,1 C 93 % 1012,5 hPa 0,0 l/m 13,3 km/h (3 Bft) O 90 0 min 0 W/m 2,1 C -2,2 C 13,3 km/h (3 Bft)
15.12.2008 02:39 3,1 C 93 % 1012,5 hPa 0,0 l/m 15,8 km/h (3 Bft) O 90 0 min 0 W/m 2,1 C -3,7 C 15,8 km/h (3 Bft)
15.12.2008 02:44 3,1 C 93 % 1012,5 hPa 0,0 l/m 19,0 km/h (3 Bft) O 90 0 min 0 W/m 2,1 C -5,2 C 19,0 km/h (3 Bft)
15.12.2008 02:49 3,1 C 93 % 1012,5 hPa 0,0 l/m 5,9 km/h (2 Bft) O-NO 60 0 min 0 W/m 2,1 C 3,1 C 5,9 km/h (2 Bft)
15.12.2008 02:54 3,1 C 93 % 1012,5 hPa 0,0 l/m 15,9 km/h (3 Bft) O 85 0 min 0 W/m 2,1 C -3,7 C 15,9 km/h (3 Bft)
15.12.2008 02:59 3,1 C 93 % 1012,5 hPa 0,0 l/m 16,8 km/h (3 Bft) O 85 0 min 0 W/m 2,1 C -4,2 C 16,8 km/h (3 Bft)
15.12.2008 03:04 3,2 C 93 % 1012,5 hPa 0,0 l/m 14,2 km/h (3 Bft) O 90 0 min 0 W/m 2,2 C -2,7 C 14,2 km/h (3 Bft)
15.12.2008 03:09 3,2 C 93 % 1013,5 hPa 0,0 l/m 12,1 km/h (2 Bft) O 85 0 min 0 W/m 2,2 C -1,4 C 12,1 km/h (2 Bft)
15.12.2008 03:14 3,2 C 93 % 1013,5 hPa 0,0 l/m 10,1 km/h (2 Bft) O-NO 65 0 min 0 W/m 2,2 C 0,0 C 10,1 km/h (2 Bft)
15.12.2008 03:19 3,2 C 93 % 1013,5 hPa 0,0 l/m 16,8 km/h (3 Bft) O 80 0 min 0 W/m 2,2 C -4,0 C 16,8 km/h (3 Bft)
15.12.2008 03:24 3,2 C 93 % 1013,5 hPa 0,0 l/m 11,1 km/h (2 Bft) O 95 0 min 0 W/m 2,2 C -0,7 C 11,1 km/h (2 Bft)
15.12.2008 03:30 3,2 C 92 % 1013,5 hPa 0,0 l/m 18,1 km/h (3 Bft) O-NO 60 0 min 0 W/m 2,0 C -4,7 C 18,1 km/h (3 Bft)
15.12.2008 03:35 3,3 C 92 % 1013,5 hPa 0,0 l/m 9,8 km/h (2 Bft) O 85 0 min 0 W/m 2,1 C 0,3 C 9,8 km/h (2 Bft)
15.12.2008 03:40 3,3 C 92 % 1013,5 hPa 0,0 l/m 10,0 km/h (2 Bft) O 100 0 min 0 W/m 2,1 C 0,2 C 10,0 km/h (2 Bft)
15.12.2008 03:45 3,3 C 92 % 1013,5 hPa 0,0 l/m 11,2 km/h (2 Bft) O-NO 65 0 min 0 W/m 2,1 C -0,7 C 11,2 km/h (2 Bft)
15.12.2008 03:49 3,2 C 92 % 1013,5 hPa 0,0 l/m 10,5 km/h (2 Bft) NO 40 0 min 0 W/m 2,0 C -0,3 C 10,5 km/h (2 Bft)
15.12.2008 03:54 3,2 C 92 % 1013,5 hPa 0,0 l/m 6,8 km/h (2 Bft) O 80 0 min 0 W/m 2,0 C 2,8 C 6,8 km/h (2 Bft)
15.12.2008 03:59 3,2 C 92 % 1013,5 hPa 0,0 l/m 9,6 km/h (2 Bft) O-SO 110 0 min 0 W/m 2,0 C 0,4 C 9,6 km/h (2 Bft)
15.12.2008 04:04 3,2 C 92 % 1013,5 hPa 0,0 l/m 9,2 km/h (2 Bft) O-NO 60 0 min 0 W/m 2,0 C 0,7 C 9,2 km/h (2 Bft)
15.12.2008 04:10 3,2 C 92 % 1013,5 hPa 0,0 l/m 8,5 km/h (2 Bft) NO 55 0 min 0 W/m 2,0 C 1,3 C 8,5 km/h (2 Bft)
15.12.2008 04:14 3,2 C 92 % 1013,5 hPa 0,0 l/m 7,6 km/h (2 Bft) O-NO 60 0 min 0 W/m 2,0 C 2,1 C 7,6 km/h (2 Bft)
15.12.2008 04:19 3,2 C 92 % 1013,5 hPa 0,0 l/m 12,3 km/h (2 Bft) O-NO 65 0 min 0 W/m 2,0 C -1,5 C 12,3 km/h (2 Bft)
15.12.2008 04:24 3,2 C 92 % 1013,5 hPa 0,0 l/m 10,7 km/h (2 Bft) O-NO 70 0 min 0 W/m 2,0 C -0,4 C 10,7 km/h (2 Bft)
15.12.2008 04:29 3,2 C 92 % 1013,5 hPa 0,0 l/m 9,3 km/h (2 Bft) O-NO 75 0 min 0 W/m 2,0 C 0,6 C 9,3 km/h (2 Bft)
15.12.2008 04:34 3,2 C 93 % 1013,5 hPa 0,0 l/m 11,0 km/h (2 Bft) O-NO 70 0 min 0 W/m 2,2 C -0,6 C 11,0 km/h (2 Bft)
15.12.2008 04:40 3,2 C 93 % 1013,5 hPa 0,0 l/m 12,5 km/h (2 Bft) NO 50 0 min 0 W/m 2,2 C -1,6 C 12,5 km/h (2 Bft)
15.12.2008 04:45 3,2 C 93 % 1013,5 hPa 0,0 l/m 10,1 km/h (2 Bft) O-NO 60 0 min 0 W/m 2,2 C 0,0 C 10,1 km/h (2 Bft)
15.12.2008 04:50 3,9 C 94 % 1013,5 hPa 0,0 l/m 10,6 km/h (2 Bft) SO 140 0 min 0 W/m 3,0 C 0,4 C 10,6 km/h (2 Bft)
15.12.2008 04:55 4,4 C 93 % 1013,5 hPa 0,0 l/m 11,2 km/h (2 Bft) O-NO 70 0 min 0 W/m 3,4 C 0,6 C 11,2 km/h (2 Bft)
15.12.2008 04:59 4,7 C 93 % 1013,5 hPa 0,0 l/m 8,1 km/h (2 Bft) NO 55 0 min 0 W/m 3,7 C 3,2 C 8,1 km/h (2 Bft)
15.12.2008 05:05 4,9 C 92 % 1013,5 hPa 0,0 l/m 9,8 km/h (2 Bft) O 80 0 min 0 W/m 3,7 C 2,1 C 9,8 km/h (2 Bft)
15.12.2008 05:10 5,2 C 91 % 1013,5 hPa 0,0 l/m 11,8 km/h (2 Bft) O-NO 75 0 min 0 W/m 3,9 C 1,1 C 11,8 km/h (2 Bft)
15.12.2008 05:15 5,2 C 91 % 1013,5 hPa 0,0 l/m 6,1 km/h (2 Bft) O-NO 60 0 min 0 W/m 3,9 C 5,2 C 6,1 km/h (2 Bft)
15.12.2008 05:20 5,2 C 90 % 1013,5 hPa 0,0 l/m 13,9 km/h (3 Bft) O 95 0 min 0 W/m 3,7 C -0,1 C 13,9 km/h (3 Bft)
15.12.2008 05:24 5,4 C 89 % 1013,5 hPa 0,0 l/m 11,4 km/h (2 Bft) O-NO 70 0 min 0 W/m 3,7 C 1,6 C 11,4 km/h (2 Bft)
15.12.2008 05:29 5,4 C 89 % 1013,5 hPa 0,0 l/m 9,6 km/h (2 Bft) O-NO 60 0 min 0 W/m 3,7 C 2,8 C 9,6 km/h (2 Bft)
15.12.2008 05:34 5,6 C 89 % 1013,5 hPa 0,0 l/m 10,8 km/h (2 Bft) O 80 0 min 0 W/m 3,9 C 2,2 C 10,8 km/h (2 Bft)
15.12.2008 05:39 5,4 C 88 % 1013,5 hPa 0,0 l/m 14,2 km/h (3 Bft) O 100 0 min 0 W/m 3,6 C -0,0 C 14,2 km/h (3 Bft)
15.12.2008 05:44 5,2 C 87 % 1013,5 hPa 0,0 l/m 6,5 km/h (2 Bft) SO 125 0 min 0 W/m 3,2 C 5,1 C 6,5 km/h (2 Bft)
15.12.2008 05:50 5,2 C 87 % 1013,5 hPa 0,0 l/m 13,1 km/h (3 Bft) O 95 0 min 0 W/m 3,2 C 0,3 C 13,1 km/h (3 Bft)
15.12.2008 05:55 5,8 C 88 % 1014,5 hPa 0,0 l/m 9,5 km/h (2 Bft) O-NO 70 0 min 0 W/m 4,0 C 3,3 C 9,5 km/h (2 Bft)
15.12.2008 06:00 5,8 C 86 % 1013,5 hPa 0,0 l/m 8,8 km/h (2 Bft) O 85 0 min 0 W/m 3,6 C 3,8 C 8,8 km/h (2 Bft)
15.12.2008 06:04 5,6 C 85 % 1013,5 hPa 0,0 l/m 13,3 km/h (3 Bft) O 85 0 min 0 W/m 3,3 C 0,7 C 13,3 km/h (3 Bft)
15.12.2008 06:09 5,4 C 86 % 1014,5 hPa 0,0 l/m 10,0 km/h (2 Bft) O-NO 65 0 min 0 W/m 3,3 C 2,5 C 10,0 km/h (2 Bft)
15.12.2008 06:15 5,4 C 85 % 1014,5 hPa 0,0 l/m 7,6 km/h (2 Bft) O-NO 70 0 min 0 W/m 3,1 C 4,4 C 7,6 km/h (2 Bft)
15.12.2008 06:20 5,4 C 86 % 1014,5 hPa 0,0 l/m 11,1 km/h (2 Bft) O 95 0 min 0 W/m 3,3 C 1,8 C 11,1 km/h (2 Bft)
15.12.2008 06:25 5,4 C 86 % 1014,5 hPa 0,0 l/m 12,6 km/h (3 Bft) O 90 0 min 0 W/m 3,3 C 0,9 C 12,6 km/h (3 Bft)
15.12.2008 06:30 5,7 C 86 % 1014,5 hPa 0,0 l/m 6,9 km/h (2 Bft) O 80 0 min 0 W/m 3,5 C 5,3 C 6,9 km/h (2 Bft)
15.12.2008 06:34 6,0 C 85 % 1014,5 hPa 0,0 l/m 8,4 km/h (2 Bft) O 85 0 min 0 W/m 3,7 C 4,3 C 8,4 km/h (2 Bft)
15.12.2008 06:39 5,9 C 84 % 1014,5 hPa 0,0 l/m 10,2 km/h (2 Bft) O 90 0 min 0 W/m 3,4 C 2,9 C 10,2 km/h (2 Bft)
15.12.2008 06:44 5,8 C 85 % 1014,5 hPa 0,0 l/m 10,0 km/h (2 Bft) O 80 0 min 0 W/m 3,5 C 3,0 C 10,0 km/h (2 Bft)
15.12.2008 06:49 5,8 C 85 % 1014,5 hPa 0,0 l/m 8,4 km/h (2 Bft) O-NO 65 0 min 0 W/m 3,5 C 4,1 C 8,4 km/h (2 Bft)
15.12.2008 06:54 5,7 C 84 % 1014,5 hPa 0,0 l/m 11,6 km/h (2 Bft) O 95 0 min 0 W/m 3,2 C 1,8 C 11,6 km/h (2 Bft)
15.12.2008 07:00 5,6 C 85 % 1014,5 hPa 0,0 l/m 10,6 km/h (2 Bft) O 85 0 min 0 W/m 3,3 C 2,3 C 10,6 km/h (2 Bft)
15.12.2008 07:04 5,5 C 85 % 1014,5 hPa 0,0 l/m 2,7 km/h (1 Bft) O 80 0 min 0 W/m 3,2 C 5,5 C 2,7 km/h (1 Bft)
15.12.2008 07:09 5,4 C 85 % 1014,5 hPa 0,0 l/m 7,4 km/h (2 Bft) O-NO 75 0 min 0 W/m 3,1 C 4,5 C 7,4 km/h (2 Bft)
15.12.2008 07:14 5,4 C 85 % 1014,5 hPa 0,0 l/m 8,7 km/h (2 Bft) O 80 0 min 0 W/m 3,1 C 3,5 C 8,7 km/h (2 Bft)
15.12.2008 07:19 5,4 C 85 % 1014,5 hPa 0,0 l/m 7,2 km/h (2 Bft) O 90 0 min 0 W/m 3,1 C 4,7 C 7,2 km/h (2 Bft)
15.12.2008 07:25 5,4 C 85 % 1014,5 hPa 0,0 l/m 14,1 km/h (3 Bft) O-SO 105 0 min 0 W/m 3,1 C 0,0 C 14,1 km/h (3 Bft)
15.12.2008 07:30 5,4 C 85 % 1014,5 hPa 0,0 l/m 9,0 km/h (2 Bft) O 95 0 min 0 W/m 3,1 C 3,2 C 9,0 km/h (2 Bft)
15.12.2008 07:35 5,2 C 85 % 1014,5 hPa 0,0 l/m 8,0 km/h (2 Bft) O-NO 70 0 min 0 W/m 2,9 C 3,8 C 8,0 km/h (2 Bft)
15.12.2008 07:39 5,6 C 86 % 1014,5 hPa 0,0 l/m 4,6 km/h (1 Bft) O 85 0 min 0 W/m 3,4 C 5,6 C 4,6 km/h (1 Bft)
15.12.2008 07:44 5,8 C 86 % 1014,5 hPa 0,0 l/m 8,9 km/h (2 Bft) O-NO 65 0 min 0 W/m 3,6 C 3,7 C 8,9 km/h (2 Bft)
15.12.2008 07:49 5,7 C 84 % 1015,5 hPa 0,0 l/m 5,9 km/h (2 Bft) O 100 0 min 0 W/m 3,2 C 5,7 C 5,9 km/h (2 Bft)
15.12.2008 07:54 5,6 C 84 % 1015,5 hPa 0,0 l/m 9,6 km/h (2 Bft) O-NO 75 0 min 0 W/m 3,1 C 3,0 C 9,6 km/h (2 Bft)
15.12.2008 07:59 5,6 C 85 % 1015,5 hPa 0,0 l/m 2,9 km/h (1 Bft) O-NO 70 0 min 0 W/m 3,3 C 5,6 C 2,9 km/h (1 Bft)
15.12.2008 08:04 5,7 C 85 % 1015,5 hPa 0,0 l/m 10,5 km/h (2 Bft) O 85 0 min 0 W/m 3,4 C 2,5 C 10,5 km/h (2 Bft)
15.12.2008 08:09 6,0 C 85 % 1015,5 hPa 0,0 l/m 8,9 km/h (2 Bft) O-NO 65 0 min 0 W/m 3,7 C 4,0 C 8,9 km/h (2 Bft)
15.12.2008 08:14 6,0 C 84 % 1015,5 hPa 0,0 l/m 4,4 km/h (1 Bft) O-NO 60 0 min 0 W/m 3,5 C 6,0 C 4,4 km/h (1 Bft)
15.12.2008 08:19 6,0 C 84 % 1015,5 hPa 0,0 l/m 8,2 km/h (2 Bft) O 100 0 min 0 W/m 3,5 C 4,5 C 8,2 km/h (2 Bft)
15.12.2008 08:24 5,8 C 83 % 1015,5 hPa 0,0 l/m 7,4 km/h (2 Bft) O 95 0 min 0 W/m 3,1 C 4,9 C 7,4 km/h (2 Bft)
15.12.2008 08:30 5,6 C 83 % 1015,5 hPa 0,0 l/m 10,2 km/h (2 Bft) O-SO 105 0 min 0 W/m 2,9 C 2,6 C 10,2 km/h (2 Bft)
15.12.2008 08:35 5,6 C 83 % 1015,5 hPa 0,0 l/m 0,9 km/h (0 Bft) O-SO 105 0 min 0 W/m 2,9 C 5,6 C 0,9 km/h (0 Bft)
15.12.2008 08:40 5,6 C 84 % 1015,5 hPa 0,0 l/m 8,7 km/h (2 Bft) O 85 0 min 0 W/m 3,1 C 3,7 C 8,7 km/h (2 Bft)
15.12.2008 08:44 5,6 C 84 % 1015,5 hPa 0,0 l/m 7,4 km/h (2 Bft) O-NO 75 0 min 0 W/m 3,1 C 4,7 C 7,4 km/h (2 Bft)
15.12.2008 08:49 5,4 C 84 % 1015,5 hPa 0,0 l/m 6,2 km/h (2 Bft) O-NO 70 0 min 0 W/m 2,9 C 5,4 C 6,2 km/h (2 Bft)
15.12.2008 08:54 5,3 C 84 % 1015,5 hPa 0,0 l/m 9,5 km/h (2 Bft) O 85 0 min 0 W/m 2,8 C 2,8 C 9,5 km/h (2 Bft)
15.12.2008 08:59 5,4 C 84 % 1015,5 hPa 0,0 l/m 7,6 km/h (2 Bft) O 85 0 min 0 W/m 2,9 C 4,4 C 7,6 km/h (2 Bft)
15.12.2008 09:05 5,7 C 84 % 1015,5 hPa 0,0 l/m 7,4 km/h (2 Bft) O 80 0 min 0 W/m 3,2 C 4,8 C 7,4 km/h (2 Bft)
15.12.2008 09:09 5,6 C 83 % 1015,5 hPa 0,0 l/m 12,8 km/h (3 Bft) O 85 0 min 0 W/m 2,9 C 1,0 C 12,8 km/h (3 Bft)
15.12.2008 09:14 5,4 C 84 % 1015,5 hPa 0,0 l/m 7,2 km/h (2 Bft) O 95 0 min 0 W/m 2,9 C 4,7 C 7,2 km/h (2 Bft)
15.12.2008 09:19 5,6 C 84 % 1015,5 hPa 0,0 l/m 16,2 km/h (3 Bft) O-SO 115 0 min 0 W/m 3,1 C -0,8 C 16,2 km/h (3 Bft)
15.12.2008 09:25 5,6 C 83 % 1015,5 hPa 0,0 l/m 11,1 km/h (2 Bft) S 170 0 min 0 W/m 2,9 C 2,0 C 11,1 km/h (2 Bft)
15.12.2008 09:30 5,4 C 84 % 1015,5 hPa 0,0 l/m 8,1 km/h (2 Bft) O-SO 105 0 min 0 W/m 2,9 C 3,9 C 8,1 km/h (2 Bft)
15.12.2008 09:35 5,3 C 84 % 1015,5 hPa 0,0 l/m 11,0 km/h (2 Bft) O 100 0 min 0 W/m 2,8 C 1,7 C 11,0 km/h (2 Bft)
15.12.2008 09:39 5,4 C 84 % 1015,5 hPa 0,0 l/m 6,4 km/h (2 Bft) O 100 0 min 0 W/m 2,9 C 5,4 C 6,4 km/h (2 Bft)
15.12.2008 09:44 5,6 C 84 % 1015,5 hPa 0,0 l/m 8,2 km/h (2 Bft) O-SO 110 0 min 0 W/m 3,1 C 4,1 C 8,2 km/h (2 Bft)
15.12.2008 09:49 5,9 C 83 % 1015,5 hPa 0,0 l/m 8,1 km/h (2 Bft) O-SO 105 0 min 0 W/m 3,2 C 4,5 C 8,1 km/h (2 Bft)
15.12.2008 09:54 5,6 C 83 % 1015,5 hPa 0,0 l/m 10,9 km/h (2 Bft) NO 50 0 min 0 W/m 2,9 C 2,1 C 10,9 km/h (2 Bft)
15.12.2008 09:59 5,5 C 83 % 1015,5 hPa 0,0 l/m 9,2 km/h (2 Bft) O 85 0 min 0 W/m 2,8 C 3,2 C 9,2 km/h (2 Bft)
15.12.2008 10:05 5,5 C 84 % 1015,5 hPa 0,0 l/m 9,6 km/h (2 Bft) O 90 0 min 0 W/m 3,0 C 2,9 C 9,6 km/h (2 Bft)
15.12.2008 10:09 5,6 C 84 % 1015,5 hPa 0,0 l/m 5,7 km/h (2 Bft) O 100 0 min 0 W/m 3,1 C 5,6 C 5,7 km/h (2 Bft)
15.12.2008 10:14 5,7 C 84 % 1015,5 hPa 0,0 l/m 10,7 km/h (2 Bft) O 90 0 min 0 W/m 3,2 C 2,4 C 10,7 km/h (2 Bft)
15.12.2008 10:19 5,6 C 83 % 1015,5 hPa 0,0 l/m 12,0 km/h (2 Bft) O 100 0 min 0 W/m 2,9 C 1,4 C 12,0 km/h (2 Bft)
15.12.2008 10:24 5,5 C 83 % 1015,5 hPa 0,0 l/m 10,6 km/h (2 Bft) O-SO 110 0 min 0 W/m 2,8 C 2,2 C 10,6 km/h (2 Bft)
15.12.2008 10:30 5,4 C 83 % 1016,5 hPa 0,0 l/m 6,2 km/h (2 Bft) O-SO 115 0 min 0 W/m 2,7 C 5,4 C 6,2 km/h (2 Bft)
15.12.2008 10:35 5,4 C 84 % 1016,5 hPa 0,0 l/m 8,6 km/h (2 Bft) O-SO 105 0 min 0 W/m 2,9 C 3,5 C 8,6 km/h (2 Bft)
15.12.2008 10:40 5,3 C 84 % 1016,5 hPa 0,0 l/m 8,0 km/h (2 Bft) O 85 0 min 0 W/m 2,8 C 3,9 C 8,0 km/h (2 Bft)
15.12.2008 10:44 5,3 C 84 % 1016,5 hPa 0,0 l/m 9,0 km/h (2 Bft) O 85 0 min 0 W/m 2,8 C 3,1 C 9,0 km/h (2 Bft)
15.12.2008 10:49 5,6 C 84 % 1016,5 hPa 0,0 l/m 4,1 km/h (1 Bft) O-SO 115 0 min 0 W/m 3,1 C 5,6 C 4,1 km/h (1 Bft)
15.12.2008 10:54 5,8 C 84 % 1016,5 hPa 0,0 l/m 3,9 km/h (1 Bft) O 85 0 min 0 W/m 3,3 C 5,8 C 3,9 km/h (1 Bft)
15.12.2008 10:59 5,8 C 83 % 1016,5 hPa 0,0 l/m 4,7 km/h (1 Bft) O-SO 110 0 min 0 W/m 3,1 C 5,8 C 4,7 km/h (1 Bft)
15.12.2008 11:05 5,7 C 83 % 1016,5 hPa 0,0 l/m 6,5 km/h (2 Bft) O-NO 75 0 min 0 W/m 3,0 C 5,6 C 6,5 km/h (2 Bft)
15.12.2008 11:09 5,6 C 83 % 1016,5 hPa 0,0 l/m 6,3 km/h (2 Bft) O-NO 60 0 min 0 W/m 2,9 C 5,6 C 6,3 km/h (2 Bft)
15.12.2008 11:14 5,4 C 83 % 1016,5 hPa 0,0 l/m 10,0 km/h (2 Bft) O 80 0 min 0 W/m 2,7 C 2,5 C 10,0 km/h (2 Bft)
15.12.2008 11:19 5,3 C 83 % 1016,5 hPa 0,0 l/m 8,1 km/h (2 Bft) O-NO 70 0 min 0 W/m 2,7 C 3,8 C 8,1 km/h (2 Bft)
15.12.2008 11:24 5,3 C 84 % 1016,5 hPa 0,0 l/m 6,5 km/h (2 Bft) O 100 0 min 0 W/m 2,8 C 5,2 C 6,5 km/h (2 Bft)
15.12.2008 11:30 5,2 C 84 % 1016,5 hPa 0,0 l/m 10,2 km/h (2 Bft) O 85 0 min 0 W/m 2,7 C 2,2 C 10,2 km/h (2 Bft)
15.12.2008 11:35 5,2 C 84 % 1016,5 hPa 0,0 l/m 9,7 km/h (2 Bft) O 80 0 min 0 W/m 2,7 C 2,5 C 9,7 km/h (2 Bft)
15.12.2008 11:40 4,9 C 84 % 1016,5 hPa 0,0 l/m 8,7 km/h (2 Bft) O 80 0 min 0 W/m 2,4 C 2,9 C 8,7 km/h (2 Bft)
15.12.2008 11:44 4,7 C 84 % 1016,5 hPa 0,0 l/m 10,6 km/h (2 Bft) O-NO 75 0 min 0 W/m 2,2 C 1,3 C 10,6 km/h (2 Bft)
15.12.2008 11:49 4,7 C 85 % 1016,5 hPa 0,0 l/m 13,1 km/h (3 Bft) O-NO 70 0 min 0 W/m 2,4 C -0,2 C 13,1 km/h (3 Bft)
15.12.2008 11:54 4,7 C 85 % 1016,5 hPa 0,0 l/m 12,3 km/h (2 Bft) O-NO 70 0 min 0 W/m 2,4 C 0,2 C 12,3 km/h (2 Bft)
15.12.2008 11:59 4,7 C 85 % 1016,5 hPa 0,0 l/m 9,6 km/h (2 Bft) O 95 0 min 0 W/m 2,4 C 2,0 C 9,6 km/h (2 Bft)
15.12.2008 12:04 4,7 C 85 % 1016,5 hPa 0,0 l/m 11,2 km/h (2 Bft) O 95 0 min 0 W/m 2,4 C 0,9 C 11,2 km/h (2 Bft)
15.12.2008 12:09 4,7 C 85 % 1016,5 hPa 0,0 l/m 5,2 km/h (1 Bft) O-NO 65 0 min 0 W/m 2,4 C 4,7 C 5,2 km/h (1 Bft)
15.12.2008 12:14 4,8 C 85 % 1016,5 hPa 0,0 l/m 8,9 km/h (2 Bft) O-NO 75 0 min 0 W/m 2,5 C 2,7 C 8,9 km/h (2 Bft)
15.12.2008 12:19 4,7 C 85 % 1016,5 hPa 0,0 l/m 6,4 km/h (2 Bft) O 100 0 min 0 W/m 2,4 C 4,7 C 6,4 km/h (2 Bft)
15.12.2008 12:24 4,9 C 86 % 1016,5 hPa 0,0 l/m 10,0 km/h (2 Bft) O 80 0 min 0 W/m 2,8 C 2,0 C 10,0 km/h (2 Bft)
15.12.2008 12:30 4,9 C 85 % 1016,5 hPa 0,0 l/m 12,0 km/h (2 Bft) O 80 0 min 0 W/m 2,6 C 0,6 C 12,0 km/h (2 Bft)
15.12.2008 12:35 4,8 C 85 % 1016,5 hPa 0,0 l/m 9,3 km/h (2 Bft) O-NO 60 0 min 0 W/m 2,5 C 2,4 C 9,3 km/h (2 Bft)
15.12.2008 12:40 4,7 C 84 % 1016,5 hPa 0,0 l/m 13,0 km/h (3 Bft) O 80 0 min 0 W/m 2,2 C -0,2 C 13,0 km/h (3 Bft)
15.12.2008 12:44 4,2 C 85 % 1016,5 hPa 0,0 l/m 11,0 km/h (2 Bft) O-SO 105 0 min 0 W/m 1,9 C 0,5 C 11,0 km/h (2 Bft)
15.12.2008 12:49 3,9 C 85 % 1016,5 hPa 0,0 l/m 8,7 km/h (2 Bft) O-SO 105 0 min 0 W/m 1,6 C 1,9 C 8,7 km/h (2 Bft)
15.12.2008 12:54 3,9 C 86 % 1016,5 hPa 0,0 l/m 9,0 km/h (2 Bft) NO 50 0 min 0 W/m 1,8 C 1,6 C 9,0 km/h (2 Bft)
15.12.2008 12:59 3,8 C 87 % 1016,5 hPa 0,0 l/m 11,0 km/h (2 Bft) O-NO 65 0 min 0 W/m 1,8 C 0,0 C 11,0 km/h (2 Bft)
15.12.2008 13:04 3,7 C 87 % 1016,5 hPa 0,0 l/m 10,5 km/h (2 Bft) O-NO 70 0 min 0 W/m 1,7 C 0,3 C 10,5 km/h (2 Bft)
15.12.2008 13:09 3,7 C 87 % 1016,5 hPa 0,0 l/m 11,5 km/h (2 Bft) O 90 0 min 0 W/m 1,7 C -0,4 C 11,5 km/h (2 Bft)
15.12.2008 13:14 3,7 C 87 % 1016,5 hPa 0,0 l/m 9,2 km/h (2 Bft) O-SO 105 0 min 0 W/m 1,7 C 1,2 C 9,2 km/h (2 Bft)
15.12.2008 13:19 3,7 C 88 % 1016,5 hPa 0,0 l/m 6,8 km/h (2 Bft) NO 40 0 min 0 W/m 1,9 C 3,3 C 6,8 km/h (2 Bft)
15.12.2008 13:24 3,7 C 88 % 1016,5 hPa 0,0 l/m 9,4 km/h (2 Bft) O-NO 75 0 min 0 W/m 1,9 C 1,1 C 9,4 km/h (2 Bft)
15.12.2008 13:30 3,7 C 88 % 1016,5 hPa 0,0 l/m 8,5 km/h (2 Bft) O 90 0 min 0 W/m 1,9 C 1,8 C 8,5 km/h (2 Bft)
15.12.2008 13:35 3,6 C 88 % 1016,5 hPa 0,0 l/m 6,1 km/h (2 Bft) O 90 0 min 0 W/m 1,8 C 3,6 C 6,1 km/h (2 Bft)
15.12.2008 13:40 3,7 C 88 % 1016,5 hPa 0,0 l/m 15,2 km/h (3 Bft) O-NO 75 0 min 0 W/m 1,9 C -2,6 C 15,2 km/h (3 Bft)
15.12.2008 13:44 3,6 C 88 % 1016,5 hPa 0,0 l/m 9,6 km/h (2 Bft) O-NO 60 0 min 0 W/m 1,8 C 0,8 C 9,6 km/h (2 Bft)
15.12.2008 13:49 3,6 C 88 % 1016,5 hPa 0,0 l/m 12,2 km/h (2 Bft) O 80 0 min 0 W/m 1,8 C -1,0 C 12,2 km/h (2 Bft)
15.12.2008 13:54 3,5 C 89 % 1016,5 hPa 0,0 l/m 6,5 km/h (2 Bft) NO 50 0 min 0 W/m 1,9 C 3,4 C 6,5 km/h (2 Bft)
15.12.2008 13:59 3,5 C 89 % 1016,5 hPa 0,0 l/m 8,4 km/h (2 Bft) O 85 0 min 0 W/m 1,9 C 1,7 C 8,4 km/h (2 Bft)
15.12.2008 14:04 3,5 C 89 % 1016,5 hPa 0,0 l/m 8,1 km/h (2 Bft) O-SO 110 0 min 0 W/m 1,9 C 1,9 C 8,1 km/h (2 Bft)
15.12.2008 14:09 3,5 C 89 % 1016,5 hPa 0,0 l/m 10,5 km/h (2 Bft) O-NO 70 0 min 0 W/m 1,9 C 0,1 C 10,5 km/h (2 Bft)
15.12.2008 14:14 3,5 C 89 % 1016,5 hPa 0,0 l/m 6,6 km/h (2 Bft) O-NO 70 0 min 0 W/m 1,9 C 3,3 C 6,6 km/h (2 Bft)
15.12.2008 14:19 3,5 C 89 % 1016,5 hPa 0,0 l/m 8,8 km/h (2 Bft) O-NO 60 0 min 0 W/m 1,9 C 1,4 C 8,8 km/h (2 Bft)
15.12.2008 14:25 3,5 C 89 % 1016,5 hPa 0,0 l/m 6,8 km/h (2 Bft) O-NO 75 0 min 0 W/m 1,9 C 3,1 C 6,8 km/h (2 Bft)
15.12.2008 14:30 3,5 C 89 % 1016,5 hPa 0,0 l/m 7,9 km/h (2 Bft) O-NO 75 0 min 0 W/m 1,9 C 2,1 C 7,9 km/h (2 Bft)
15.12.2008 14:35 3,5 C 89 % 1016,5 hPa 0,0 l/m 7,0 km/h (2 Bft) O-NO 75 0 min 0 W/m 1,9 C 2,9 C 7,0 km/h (2 Bft)
15.12.2008 14:39 3,5 C 89 % 1016,5 hPa 0,0 l/m 2,2 km/h (1 Bft) O-NO 75 0 min 0 W/m 1,9 C 3,5 C 2,2 km/h (1 Bft)
15.12.2008 14:44 3,5 C 89 % 1016,5 hPa 0,0 l/m 7,7 km/h (2 Bft) O-SO 110 0 min 0 W/m 1,9 C 2,3 C 7,7 km/h (2 Bft)
15.12.2008 14:49 3,5 C 89 % 1016,5 hPa 0,0 l/m 8,5 km/h (2 Bft) O 80 0 min 0 W/m 1,9 C 1,6 C 8,5 km/h (2 Bft)
15.12.2008 14:54 3,5 C 89 % 1016,5 hPa 0,0 l/m 8,2 km/h (2 Bft) O 80 0 min 0 W/m 1,9 C 1,9 C 8,2 km/h (2 Bft)
15.12.2008 15:00 3,5 C 89 % 1016,5 hPa 0,0 l/m 10,1 km/h (2 Bft) O 95 0 min 0 W/m 1,9 C 0,3 C 10,1 km/h (2 Bft)
15.12.2008 15:04 3,5 C 90 % 1016,5 hPa 0,0 l/m 7,6 km/h (2 Bft) O 80 0 min 0 W/m 2,0 C 2,4 C 7,6 km/h (2 Bft)
15.12.2008 15:09 3,4 C 90 % 1016,5 hPa 0,0 l/m 5,2 km/h (1 Bft) O-SO 105 0 min 0 W/m 1,9 C 3,4 C 5,2 km/h (1 Bft)
15.12.2008 15:14 3,5 C 90 % 1016,5 hPa 0,0 l/m 10,3 km/h (2 Bft) O 85 0 min 0 W/m 2,0 C 0,2 C 10,3 km/h (2 Bft)
15.12.2008 15:20 3,5 C 90 % 1016,5 hPa 0,0 l/m 5,7 km/h (2 Bft) O-SO 105 0 min 0 W/m 2,0 C 3,5 C 5,7 km/h (2 Bft)
15.12.2008 15:25 3,4 C 90 % 1016,5 hPa 0,0 l/m 7,6 km/h (2 Bft) O 100 0 min 0 W/m 1,9 C 2,3 C 7,6 km/h (2 Bft)
15.12.2008 15:30 3,5 C 90 % 1016,5 hPa 0,0 l/m 7,8 km/h (2 Bft) O-SO 105 0 min 0 W/m 2,0 C 2,2 C 7,8 km/h (2 Bft)
15.12.2008 15:34 3,5 C 90 % 1016,5 hPa 0,0 l/m 0,6 km/h (0 Bft) SO 125 0 min 0 W/m 2,0 C 3,5 C 0,6 km/h (0 Bft)
15.12.2008 15:39 3,5 C 90 % 1016,5 hPa 0,0 l/m 10,0 km/h (2 Bft) O-SO 110 0 min 0 W/m 2,0 C 0,4 C 10,0 km/h (2 Bft)
15.12.2008 15:44 3,5 C 90 % 1016,5 hPa 0,0 l/m 5,7 km/h (2 Bft) O 80 0 min 0 W/m 2,0 C 3,5 C 5,7 km/h (2 Bft)
15.12.2008 15:49 3,4 C 90 % 1016,5 hPa 0,0 l/m 0,9 km/h (0 Bft) O 95 0 min 0 W/m 1,9 C 3,4 C 0,9 km/h (0 Bft)
15.12.2008 15:55 3,4 C 90 % 1016,5 hPa 0,0 l/m 0,6 km/h (0 Bft) NO 50 0 min 0 W/m 1,9 C 3,4 C 0,6 km/h (0 Bft)
15.12.2008 16:00 3,4 C 90 % 1016,5 hPa 0,0 l/m 7,9 km/h (2 Bft) O-NO 65 0 min 0 W/m 1,9 C 2,0 C 7,9 km/h (2 Bft)
15.12.2008 16:04 3,4 C 90 % 1016,5 hPa 0,0 l/m 4,6 km/h (1 Bft) NO 55 0 min 0 W/m 1,9 C 3,4 C 4,6 km/h (1 Bft)
15.12.2008 16:09 3,3 C 90 % 1016,5 hPa 0,0 l/m 3,2 km/h (1 Bft) O 95 0 min 0 W/m 1,8 C 3,3 C 3,2 km/h (1 Bft)
15.12.2008 16:15 3,4 C 90 % 1016,5 hPa 0,0 l/m 1,8 km/h (1 Bft) O 95 0 min 0 W/m 1,9 C 3,4 C 1,8 km/h (1 Bft)
15.12.2008 16:20 3,3 C 90 % 1016,5 hPa 0,0 l/m 7,1 km/h (2 Bft) O 90 0 min 0 W/m 1,8 C 2,6 C 7,1 km/h (2 Bft)
15.12.2008 16:25 3,3 C 90 % 1016,5 hPa 0,0 l/m 2,2 km/h (1 Bft) O-NO 65 0 min 0 W/m 1,8 C 3,3 C 2,2 km/h (1 Bft)
15.12.2008 16:29 3,3 C 90 % 1016,5 hPa 0,0 l/m 4,5 km/h (1 Bft) O-NO 65 0 min 0 W/m 1,8 C 3,3 C 4,5 km/h (1 Bft)
15.12.2008 16:34 3,3 C 90 % 1016,5 hPa 0,0 l/m 1,3 km/h (1 Bft) O 80 0 min 0 W/m 1,8 C 3,3 C 1,3 km/h (1 Bft)
15.12.2008 16:39 3,3 C 91 % 1016,5 hPa 0,0 l/m 9,9 km/h (2 Bft) O 85 0 min 0 W/m 2,0 C 0,3 C 9,9 km/h (2 Bft)
15.12.2008 16:44 3,3 C 91 % 1016,5 hPa 0,0 l/m 7,8 km/h (2 Bft) O 85 0 min 0 W/m 2,0 C 2,0 C 7,8 km/h (2 Bft)
15.12.2008 16:50 3,3 C 91 % 1016,5 hPa 0,0 l/m 7,0 km/h (2 Bft) O 80 0 min 0 W/m 2,0 C 2,7 C 7,0 km/h (2 Bft)
15.12.2008 16:55 3,3 C 91 % 1016,5 hPa 0,0 l/m 1,1 km/h (1 Bft) O-NO 75 0 min 0 W/m 2,0 C 3,3 C 1,1 km/h (1 Bft)
15.12.2008 17:00 3,3 C 91 % 1016,5 hPa 0,0 l/m 1,2 km/h (1 Bft) O 95 0 min 0 W/m 2,0 C 3,3 C 1,2 km/h (1 Bft)
15.12.2008 17:04 3,3 C 91 % 1016,5 hPa 0,0 l/m 7,0 km/h (2 Bft) NO 50 0 min 0 W/m 2,0 C 2,7 C 7,0 km/h (2 Bft)
15.12.2008 17:10 3,3 C 91 % 1016,5 hPa 0,0 l/m 6,2 km/h (2 Bft) O 95 0 min 0 W/m 2,0 C 3,3 C 6,2 km/h (2 Bft)
15.12.2008 17:15 3,3 C 91 % 1016,5 hPa 0,0 l/m 1,1 km/h (1 Bft) O 95 0 min 0 W/m 2,0 C 3,3 C 1,1 km/h (1 Bft)
15.12.2008 17:19 3,3 C 91 % 1017,5 hPa 0,0 l/m 3,4 km/h (1 Bft) O 100 0 min 0 W/m 2,0 C 3,3 C 3,4 km/h (1 Bft)
15.12.2008 17:24 3,4 C 91 % 1017,5 hPa 0,0 l/m 3,7 km/h (1 Bft) O 80 0 min 0 W/m 2,1 C 3,4 C 3,7 km/h (1 Bft)
15.12.2008 17:29 3,4 C 91 % 1017,5 hPa 0,0 l/m 6,8 km/h (2 Bft) O 90 0 min 0 W/m 2,1 C 3,0 C 6,8 km/h (2 Bft)
15.12.2008 17:34 3,4 C 91 % 1017,5 hPa 0,0 l/m 1,1 km/h (1 Bft) O 85 0 min 0 W/m 2,1 C 3,4 C 1,1 km/h (1 Bft)
15.12.2008 17:40 3,4 C 91 % 1017,5 hPa 0,0 l/m 5,5 km/h (2 Bft) O 90 0 min 0 W/m 2,1 C 3,4 C 5,5 km/h (2 Bft)
15.12.2008 17:45 3,4 C 91 % 1017,5 hPa 0,0 l/m 0,0 km/h (0 Bft) O 85 0 min 0 W/m 2,1 C 3,4 C 0,0 km/h (0 Bft)
15.12.2008 17:50 3,4 C 91 % 1017,5 hPa 0,0 l/m 0,0 km/h (0 Bft) O 85 0 min 0 W/m 2,1 C 3,4 C 0,0 km/h (0 Bft)
15.12.2008 17:54 3,5 C 91 % 1017,5 hPa 0,0 l/m 0,0 km/h (0 Bft) O 85 0 min 0 W/m 2,2 C 3,5 C 0,0 km/h (0 Bft)
15.12.2008 17:59 3,5 C 91 % 1016,5 hPa 0,0 l/m 0,9 km/h (0 Bft) O 95 0 min 0 W/m 2,2 C 3,5 C 0,9 km/h (0 Bft)
15.12.2008 18:04 3,4 C 91 % 1017,5 hPa 0,0 l/m 4,6 km/h (1 Bft) O 85 0 min 0 W/m 2,1 C 3,4 C 4,6 km/h (1 Bft)
15.12.2008 18:10 3,5 C 91 % 1017,5 hPa 0,0 l/m 1,3 km/h (1 Bft) O 80 0 min 0 W/m 2,2 C 3,5 C 1,3 km/h (1 Bft)
15.12.2008 18:14 3,4 C 91 % 1016,5 hPa 0,0 l/m 4,4 km/h (1 Bft) O-NO 70 0 min 0 W/m 2,1 C 3,4 C 4,4 km/h (1 Bft)
15.12.2008 18:19 3,4 C 91 % 1016,5 hPa 0,0 l/m 0,3 km/h (0 Bft) O-NO 70 0 min 0 W/m 2,1 C 3,4 C 0,3 km/h (0 Bft)
15.12.2008 18:24 3,4 C 91 % 1016,5 hPa 0,0 l/m 4,0 km/h (1 Bft) O 90 0 min 0 W/m 2,1 C 3,4 C 4,0 km/h (1 Bft)
15.12.2008 18:29 3,4 C 91 % 1016,5 hPa 0,0 l/m 4,9 km/h (1 Bft) O-SO 105 0 min 0 W/m 2,1 C 3,4 C 4,9 km/h (1 Bft)
15.12.2008 18:35 3,4 C 91 % 1016,5 hPa 0,0 l/m 9,2 km/h (2 Bft) O 95 0 min 0 W/m 2,1 C 0,9 C 9,2 km/h (2 Bft)
15.12.2008 18:40 3,4 C 91 % 1016,5 hPa 0,0 l/m 7,0 km/h (2 Bft) O 100 0 min 0 W/m 2,1 C 2,8 C 7,0 km/h (2 Bft)
15.12.2008 18:45 3,4 C 91 % 1016,5 hPa 0,0 l/m 5,6 km/h (2 Bft) O 90 0 min 0 W/m 2,1 C 3,4 C 5,6 km/h (2 Bft)
15.12.2008 18:49 3,4 C 91 % 1017,5 hPa 0,0 l/m 4,6 km/h (1 Bft) O 90 0 min 0 W/m 2,1 C 3,4 C 4,6 km/h (1 Bft)
15.12.2008 18:54 3,3 C 91 % 1017,5 hPa 0,0 l/m 8,6 km/h (2 Bft) O 100 0 min 0 W/m 2,0 C 1,3 C 8,6 km/h (2 Bft)
15.12.2008 18:59 3,3 C 91 % 1017,5 hPa 0,0 l/m 5,0 km/h (1 Bft) O-SO 115 0 min 0 W/m 2,0 C 3,3 C 5,0 km/h (1 Bft)
15.12.2008 19:04 3,4 C 91 % 1017,5 hPa 0,0 l/m 0,0 km/h (0 Bft) O-SO 115 0 min 0 W/m 2,1 C 3,4 C 0,0 km/h (0 Bft)
15.12.2008 19:09 3,4 C 91 % 1017,5 hPa 0,0 l/m 0,6 km/h (0 Bft) O-SO 110 0 min 0 W/m 2,1 C 3,4 C 0,6 km/h (0 Bft)
15.12.2008 19:14 3,4 C 91 % 1017,5 hPa 0,0 l/m 0,0 km/h (0 Bft) O-SO 110 0 min 0 W/m 2,1 C 3,4 C 0,0 km/h (0 Bft)
15.12.2008 19:19 3,4 C 91 % 1017,5 hPa 0,0 l/m 0,4 km/h (0 Bft) O-SO 110 0 min 0 W/m 2,1 C 3,4 C 0,4 km/h (0 Bft)
15.12.2008 19:24 3,5 C 91 % 1017,5 hPa 0,0 l/m 1,0 km/h (0 Bft) O 95 0 min 0 W/m 2,2 C 3,5 C 1,0 km/h (0 Bft)
15.12.2008 19:30 3,5 C 91 % 1017,5 hPa 0,0 l/m 0,0 km/h (0 Bft) O 90 0 min 0 W/m 2,2 C 3,5 C 0,0 km/h (0 Bft)
15.12.2008 19:35 3,5 C 91 % 1017,5 hPa 0,0 l/m 0,2 km/h (0 Bft) O 90 0 min 0 W/m 2,2 C 3,5 C 0,2 km/h (0 Bft)
15.12.2008 19:39 3,5 C 91 % 1017,5 hPa 0,0 l/m 0,2 km/h (0 Bft) O 90 0 min 0 W/m 2,2 C 3,5 C 0,2 km/h (0 Bft)
15.12.2008 19:44 3,5 C 91 % 1017,5 hPa 0,0 l/m 0,4 km/h (0 Bft) O 95 0 min 0 W/m 2,2 C 3,5 C 0,4 km/h (0 Bft)
15.12.2008 19:49 3,5 C 91 % 1017,5 hPa 0,0 l/m 0,6 km/h (0 Bft) SO 130 0 min 0 W/m 2,2 C 3,5 C 0,6 km/h (0 Bft)
15.12.2008 19:54 3,5 C 91 % 1017,5 hPa 0,0 l/m 0,6 km/h (0 Bft) SO 130 0 min 0 W/m 2,2 C 3,5 C 0,6 km/h (0 Bft)
15.12.2008 20:00 3,4 C 91 % 1017,5 hPa 0,0 l/m 2,4 km/h (1 Bft) O-NO 65 0 min 0 W/m 2,1 C 3,4 C 2,4 km/h (1 Bft)
15.12.2008 20:05 3,4 C 91 % 1017,5 hPa 0,0 l/m 1,3 km/h (1 Bft) O-NO 70 0 min 0 W/m 2,1 C 3,4 C 1,3 km/h (1 Bft)
15.12.2008 20:09 3,4 C 91 % 1017,5 hPa 0,0 l/m 0,5 km/h (0 Bft) O 95 0 min 0 W/m 2,1 C 3,4 C 0,5 km/h (0 Bft)
15.12.2008 20:14 3,4 C 91 % 1017,5 hPa 0,0 l/m 0,6 km/h (0 Bft) O 100 0 min 0 W/m 2,1 C 3,4 C 0,6 km/h (0 Bft)
15.12.2008 20:20 3,4 C 91 % 1017,5 hPa 0,0 l/m 1,2 km/h (1 Bft) O-SO 115 0 min 0 W/m 2,1 C 3,4 C 1,2 km/h (1 Bft)
15.12.2008 20:25 3,4 C 91 % 1017,5 hPa 0,0 l/m 0,7 km/h (0 Bft) O-SO 115 0 min 0 W/m 2,1 C 3,4 C 0,7 km/h (0 Bft)
15.12.2008 20:30 3,5 C 91 % 1017,5 hPa 0,0 l/m 0,1 km/h (0 Bft) O-SO 115 0 min 0 W/m 2,2 C 3,5 C 0,1 km/h (0 Bft)
15.12.2008 20:34 3,5 C 91 % 1017,5 hPa 0,0 l/m 0,0 km/h (0 Bft) O-SO 115 0 min 0 W/m 2,2 C 3,5 C 0,0 km/h (0 Bft)
15.12.2008 20:39 3,5 C 91 % 1017,5 hPa 0,0 l/m 0,0 km/h (0 Bft) O-SO 115 0 min 0 W/m 2,2 C 3,5 C 0,0 km/h (0 Bft)
15.12.2008 20:44 3,5 C 91 % 1017,5 hPa 0,0 l/m 0,0 km/h (0 Bft) O-SO 115 0 min 0 W/m 2,2 C 3,5 C 0,0 km/h (0 Bft)
15.12.2008 20:49 3,5 C 91 % 1017,5 hPa 0,0 l/m 0,0 km/h (0 Bft) O-SO 115 0 min 0 W/m 2,2 C 3,5 C 0,0 km/h (0 Bft)
15.12.2008 20:55 3,6 C 91 % 1017,5 hPa 0,0 l/m 0,0 km/h (0 Bft) O-SO 115 0 min 0 W/m 2,3 C 3,6 C 0,0 km/h (0 Bft)
15.12.2008 21:00 3,6 C 91 % 1017,5 hPa 0,0 l/m 0,0 km/h (0 Bft) O-SO 115 0 min 0 W/m 2,3 C 3,6 C 0,0 km/h (0 Bft)
15.12.2008 21:04 3,6 C 91 % 1017,5 hPa 0,0 l/m 0,0 km/h (0 Bft) O-SO 115 0 min 0 W/m 2,3 C 3,6 C 0,0 km/h (0 Bft)
15.12.2008 21:10 3,6 C 91 % 1017,5 hPa 0,0 l/m 0,0 km/h (0 Bft) O-SO 115 0 min 0 W/m 2,3 C 3,6 C 0,0 km/h (0 Bft)
15.12.2008 21:15 3,5 C 91 % 1017,5 hPa 0,0 l/m 5,0 km/h (1 Bft) O-SO 115 0 min 0 W/m 2,2 C 3,5 C 5,0 km/h (1 Bft)
15.12.2008 21:19 3,5 C 91 % 1017,5 hPa 0,0 l/m 0,1 km/h (0 Bft) O-SO 115 0 min 0 W/m 2,2 C 3,5 C 0,1 km/h (0 Bft)
15.12.2008 21:24 3,5 C 91 % 1017,5 hPa 0,0 l/m 0,0 km/h (0 Bft) O-SO 115 0 min 0 W/m 2,2 C 3,5 C 0,0 km/h (0 Bft)
15.12.2008 21:29 3,5 C 91 % 1017,5 hPa 0,0 l/m 2,8 km/h (1 Bft) O-SO 115 0 min 0 W/m 2,2 C 3,5 C 2,8 km/h (1 Bft)
15.12.2008 21:34 3,5 C 91 % 1017,5 hPa 0,0 l/m 0,1 km/h (0 Bft) O-SO 115 0 min 0 W/m 2,2 C 3,5 C 0,1 km/h (0 Bft)
15.12.2008 21:40 3,5 C 91 % 1017,5 hPa 0,0 l/m 0,3 km/h (0 Bft) O-SO 115 0 min 0 W/m 2,2 C 3,5 C 0,3 km/h (0 Bft)
15.12.2008 21:45 3,5 C 91 % 1017,5 hPa 0,0 l/m 5,2 km/h (1 Bft) O-SO 110 0 min 0 W/m 2,2 C 3,5 C 5,2 km/h (1 Bft)
15.12.2008 21:49 3,5 C 91 % 1017,5 hPa 0,0 l/m 0,4 km/h (0 Bft) O-SO 110 0 min 0 W/m 2,2 C 3,5 C 0,4 km/h (0 Bft)
15.12.2008 21:54 3,5 C 91 % 1017,5 hPa 0,0 l/m 0,0 km/h (0 Bft) O-SO 110 0 min 0 W/m 2,2 C 3,5 C 0,0 km/h (0 Bft)
15.12.2008 21:59 3,5 C 91 % 1017,5 hPa 0,0 l/m 0,0 km/h (0 Bft) O-SO 105 0 min 0 W/m 2,2 C 3,5 C 0,0 km/h (0 Bft)
15.12.2008 22:04 3,5 C 91 % 1017,5 hPa 0,0 l/m 0,0 km/h (0 Bft) O-SO 105 0 min 0 W/m 2,2 C 3,5 C 0,0 km/h (0 Bft)
15.12.2008 22:09 3,5 C 91 % 1017,5 hPa 0,0 l/m 0,0 km/h (0 Bft) O-SO 105 0 min 0 W/m 2,2 C 3,5 C 0,0 km/h (0 Bft)
15.12.2008 22:14 3,5 C 91 % 1017,5 hPa 0,0 l/m 0,0 km/h (0 Bft) O-SO 105 0 min 0 W/m 2,2 C 3,5 C 0,0 km/h (0 Bft)
15.12.2008 22:19 3,5 C 91 % 1017,5 hPa 0,0 l/m 0,0 km/h (0 Bft) O-SO 105 0 min 0 W/m 2,2 C 3,5 C 0,0 km/h (0 Bft)
15.12.2008 22:25 3,5 C 91 % 1017,5 hPa 0,0 l/m 0,0 km/h (0 Bft) O-SO 105 0 min 0 W/m 2,2 C 3,5 C 0,0 km/h (0 Bft)
15.12.2008 22:30 3,5 C 91 % 1017,5 hPa 0,0 l/m 0,0 km/h (0 Bft) O-SO 105 0 min 0 W/m 2,2 C 3,5 C 0,0 km/h (0 Bft)
15.12.2008 22:35 3,6 C 91 % 1017,5 hPa 0,0 l/m 0,0 km/h (0 Bft) O-SO 105 0 min 0 W/m 2,3 C 3,6 C 0,0 km/h (0 Bft)
15.12.2008 22:39 3,6 C 91 % 1017,5 hPa 0,0 l/m 0,0 km/h (0 Bft) O-SO 105 0 min 0 W/m 2,3 C 3,6 C 0,0 km/h (0 Bft)
15.12.2008 22:44 3,6 C 91 % 1017,5 hPa 0,0 l/m 0,0 km/h (0 Bft) O-SO 105 0 min 0 W/m 2,3 C 3,6 C 0,0 km/h (0 Bft)
15.12.2008 22:49 3,6 C 91 % 1017,5 hPa 0,0 l/m 0,0 km/h (0 Bft) O-SO 105 0 min 0 W/m 2,3 C 3,6 C 0,0 km/h (0 Bft)
15.12.2008 22:55 3,6 C 91 % 1017,5 hPa 0,0 l/m 1,0 km/h (0 Bft) O-SO 110 0 min 0 W/m 2,3 C 3,6 C 1,0 km/h (0 Bft)
15.12.2008 23:00 3,5 C 91 % 1017,5 hPa 0,0 l/m 2,8 km/h (1 Bft) O-SO 110 0 min 0 W/m 2,2 C 3,5 C 2,8 km/h (1 Bft)
15.12.2008 23:04 3,5 C 91 % 1017,5 hPa 0,0 l/m 0,0 km/h (0 Bft) O-SO 110 0 min 0 W/m 2,2 C 3,5 C 0,0 km/h (0 Bft)
15.12.2008 23:10 3,5 C 91 % 1017,5 hPa 0,0 l/m 0,0 km/h (0 Bft) O-SO 110 0 min 0 W/m 2,2 C 3,5 C 0,0 km/h (0 Bft)
15.12.2008 23:15 3,5 C 91 % 1017,5 hPa 0,0 l/m 0,0 km/h (0 Bft) O-SO 110 0 min 0 W/m 2,2 C 3,5 C 0,0 km/h (0 Bft)
15.12.2008 23:20 3,5 C 91 % 1017,5 hPa 0,0 l/m 0,0 km/h (0 Bft) O-SO 110 0 min 0 W/m 2,2 C 3,5 C 0,0 km/h (0 Bft)
15.12.2008 23:24 3,5 C 91 % 1017,5 hPa 0,0 l/m 0,0 km/h (0 Bft) O-SO 110 0 min 0 W/m 2,2 C 3,5 C 0,0 km/h (0 Bft)
15.12.2008 23:29 3,5 C 91 % 1017,5 hPa 0,0 l/m 0,0 km/h (0 Bft) O-SO 110 0 min 0 W/m 2,2 C 3,5 C 0,0 km/h (0 Bft)
15.12.2008 23:34 3,5 C 91 % 1017,5 hPa 0,0 l/m 0,0 km/h (0 Bft) O-SO 110 0 min 0 W/m 2,2 C 3,5 C 0,0 km/h (0 Bft)
15.12.2008 23:40 3,5 C 91 % 1017,5 hPa 0,0 l/m 0,0 km/h (0 Bft) O-SO 110 0 min 0 W/m 2,2 C 3,5 C 0,0 km/h (0 Bft)
15.12.2008 23:45 3,5 C 91 % 1017,5 hPa 0,0 l/m 0,0 km/h (0 Bft) O-SO 110 0 min 0 W/m 2,2 C 3,5 C 0,0 km/h (0 Bft)
15.12.2008 23:50 3,5 C 91 % 1017,5 hPa 0,0 l/m 0,0 km/h (0 Bft) O-SO 110 0 min 0 W/m 2,2 C 3,5 C 0,0 km/h (0 Bft)
15.12.2008 23:54 3,5 C 91 % 1017,5 hPa 0,0 l/m 0,0 km/h (0 Bft) O-SO 110 0 min 0 W/m 2,2 C 3,5 C 0,0 km/h (0 Bft)
15.12.2008 23:59 3,5 C 91 % 1017,5 hPa 0,0 l/m 0,0 km/h (0 Bft) O-SO 110 0 min 0 W/m 2,2 C 3,5 C 0,0 km/h (0 Bft)
_ Min-Zeit 00:04 08:24 00:04 - 17:45 - - - - 00:04 01:39 17:45
Minimum _ 2,3 C 83 % 1011,5 hPa - 0,0 km/h (0 Bft) - - - - 1,6 C -6,0 C 0,0 km/h (0 Bft)
_ Max-Zeit 06:34 00:04 17:19 00:04 01:39 - - 00:04 00:04 05:55 08:14 01:39
Maximum _ 6,0 C 95 % 1017,5 hPa 0,0 l/m 20,6 km/h
O-NO (4 Bft)
- - 0 min 0 W/m 4,0 C 6,0 C 20,6 km/h
O-NO (4 Bft)
Durchschnitt _ 4,0 C 89 % 1015,6 hPa #0,0 l/m 7,2 km/h (2 Bft) O - #0 min. 0 W/m 2,4 C 2,1 C 7,2 km/h (2 Bft)
copyright by Holger Just